Time;durP1;ratioP1;P1;durP2;ratioP2;P2;SDS_P1;SDS_P2;PMS_P1;PMS_P2;Temp;Humidity;BMP_temperature;BMP_pressure;BME280_temperature;BME280_humidity;BME280_pressure;Samples;Min_cycle;Max_cycle;Signal;HPM_P1;HPM_P2
2022/12/26 00:01:35;;;;;;;51.40;23.50;;;;;;;;;;5008750;28;98269;-76
2022/12/26 00:04:02;;;;;;;49.40;23.55;;;;;;;;;;5008195;28;99421;-76
2022/12/26 00:06:29;;;;;;;58.33;23.58;;;;;;;;;;5008252;28;99917;-76
2022/12/26 00:08:56;;;;;;;67.30;25.20;;;;;;;;;;5008342;28;98329;-77
2022/12/26 00:11:23;;;;;;;59.03;23.85;;;;;;;;;;5008463;28;99834;-76
2022/12/26 00:14:10;;;;;;;55.60;24.92;;;;;;;;;;5009754;28;99142;-76
2022/12/26 00:16:38;;;;;;;53.35;24.60;;;;;;;;;;5008103;28;98950;-76
2022/12/26 00:19:04;;;;;;;56.65;24.27;;;;;;;;;;5008829;28;99336;-77
2022/12/26 00:21:31;;;;;;;59.67;25.85;;;;;;;;;;5011455;28;99913;-76
2022/12/26 00:23:58;;;;;;;64.50;25.90;;;;;;;;;;5009434;28;98807;-76
2022/12/26 00:26:27;;;;;;;61.72;28.05;;;;;;;;;;5008549;28;99189;-76
2022/12/26 00:28:55;;;;;;;64.53;27.13;;;;;;;;;;5008315;28;98323;-76
2022/12/26 00:31:22;;;;;;;73.53;28.33;;;;;;;;;;5008032;28;99721;-76
2022/12/26 00:33:49;;;;;;;62.28;27.48;;;;;;;;;;5007818;28;98970;-76
2022/12/26 00:36:20;;;;;;;67.15;28.33;;;;;;;;;;5006988;28;98248;-76
2022/12/26 00:38:48;;;;;;;72.53;29.93;;;;;;;;;;5007587;28;99356;-76
2022/12/26 00:41:14;;;;;;;83.80;31.85;;;;;;;;;;5007495;28;99250;-76
2022/12/26 00:43:41;;;;;;;62.72;29.90;;;;;;;;;;5011456;28;98330;-77
2022/12/26 00:46:07;;;;;;;79.05;31.98;;;;;;;;;;5006782;28;99345;-77
2022/12/26 00:48:34;;;;;;;62.83;29.52;;;;;;;;;;5008090;28;98745;-77
2022/12/26 00:51:00;;;;;;;62.13;28.33;;;;;;;;;;5007404;28;99085;-77
2022/12/26 00:53:27;;;;;;;59.80;27.80;;;;;;;;;;5007550;28;100024;-76
2022/12/26 00:55:54;;;;;;;58.63;27.92;;;;;;;;;;5008275;28;98203;-78
2022/12/26 00:58:21;;;;;;;59.28;27.35;;;;;;;;;;5007765;28;98798;-75
2022/12/26 01:00:47;;;;;;;74.75;29.40;;;;;;;;;;5006300;28;99954;-77
2022/12/26 01:03:14;;;;;;;64.40;28.63;;;;;;;;;;5007896;28;98875;-77
2022/12/26 01:05:41;;;;;;;57.70;26.10;;;;;;;;;;5010642;28;99356;-77
2022/12/26 01:08:08;;;;;;;57.42;24.73;;;;;;;;;;5006614;28;99358;-77
2022/12/26 01:10:49;;;;;;;58.75;24.77;;;;;;;;;;5007881;28;99542;-77
2022/12/26 01:13:15;;;;;;;48.63;23.73;;;;;;;;;;5007183;28;100338;-77
2022/12/26 01:15:47;;;;;;;64.43;23.52;;;;;;;;;;5007698;28;98331;-78
2022/12/26 01:18:13;;;;;;;48.80;22.90;;;;;;;;;;5007473;28;98898;-77
2022/12/26 01:20:39;;;;;;;53.33;24.38;;;;;;;;;;5006830;28;99900;-77
2022/12/26 01:23:06;;;;;;;43.38;22.40;;;;;;;;;;5007745;28;98282;-77
2022/12/26 01:25:32;;;;;;;46.97;23.50;;;;;;;;;;5006342;28;100019;-77
2022/12/26 01:27:59;;;;;;;55.65;24.65;;;;;;;;;;5009811;28;98871;-76
2022/12/26 01:30:25;;;;;;;60.40;25.65;;;;;;;;;;5006890;28;99648;-75
2022/12/26 01:32:51;;;;;;;71.93;28.33;;;;;;;;;;5007210;28;100392;-77
2022/12/26 01:35:18;;;;;;;59.60;26.73;;;;;;;;;;5006890;28;98481;-76
2022/12/26 01:37:44;;;;;;;73.72;28.48;;;;;;;;;;5007084;28;99313;-77
2022/12/26 01:40:11;;;;;;;57.83;25.45;;;;;;;;;;5006590;28;99113;-76
2022/12/26 01:42:38;;;;;;;64.03;28.13;;;;;;;;;;5006625;28;98902;-75
2022/12/26 01:45:04;;;;;;;55.47;26.20;;;;;;;;;;5006923;28;98682;-78
2022/12/26 01:47:49;;;;;;;53.20;26.25;;;;;;;;;;5010051;28;99181;-76
2022/12/26 01:50:31;;;;;;;68.25;29.88;;;;;;;;;;5006034;28;99618;-77
2022/12/26 01:53:00;;;;;;;57.75;27.23;;;;;;;;;;5006422;28;99389;-76
2022/12/26 01:55:27;;;;;;;66.38;29.13;;;;;;;;;;5006252;28;98199;-76
2022/12/26 01:57:55;;;;;;;63.97;28.63;;;;;;;;;;5007350;28;99851;-76
2022/12/26 02:00:22;;;;;;;58.67;27.30;;;;;;;;;;5006766;28;99074;-77
2022/12/26 02:05:34;;;;;;;75.90;32.50;;;;;;;;;;5006818;28;99775;-77
2022/12/26 02:08:03;;;;;;;83.55;34.30;;;;;;;;;;5006644;28;99027;-77
2022/12/26 02:10:32;;;;;;;69.88;32.17;;;;;;;;;;5008785;28;98288;-77
2022/12/26 02:12:59;;;;;;;70.63;34.72;;;;;;;;;;5006633;28;100349;-77
2022/12/26 02:15:26;;;;;;;68.65;33.22;;;;;;;;;;5005678;28;98129;-77
2022/12/26 02:17:52;;;;;;;90.55;34.88;;;;;;;;;;5006114;28;99433;-77
2022/12/26 02:20:21;;;;;;;66.57;34.17;;;;;;;;;;5006679;28;100282;-77
2022/12/26 02:22:58;;;;;;;74.28;35.92;;;;;;;;;;5006230;28;98299;-79
2022/12/26 02:25:37;;;;;;;64.43;33.45;;;;;;;;;;5006149;28;99797;-76
2022/12/26 02:28:18;;;;;;;62.42;33.15;;;;;;;;;;5006305;28;99286;-76
2022/12/26 02:30:48;;;;;;;75.82;33.10;;;;;;;;;;5006057;28;98403;-76
2022/12/26 02:33:19;;;;;;;69.63;32.58;;;;;;;;;;5010326;28;99950;-75
2022/12/26 02:35:52;;;;;;;85.63;36.28;;;;;;;;;;5006419;28;98191;-76
2022/12/26 02:38:33;;;;;;;73.35;35.17;;;;;;;;;;5005743;28;98874;-76
2022/12/26 02:41:06;;;;;;;56.60;31.27;;;;;;;;;;5005597;28;99046;-77
2022/12/26 02:43:47;;;;;;;63.80;31.70;;;;;;;;;;5006499;28;98138;-77
2022/12/26 02:49:27;;;;;;;52.92;30.17;;;;;;;;;;5006240;28;99534;-77
2022/12/26 03:14:49;;;;;;;67.22;35.22;;;;;;;;;;5008809;28;98839;-76
2022/12/26 03:17:28;;;;;;;63.53;34.47;;;;;;;;;;5009734;28;99324;-76
2022/12/26 03:20:15;;;;;;;56.05;32.65;;;;;;;;;;5008495;28;100616;-76
2022/12/26 03:22:49;;;;;;;52.75;31.73;;;;;;;;;;5012409;28;98381;-76
2022/12/26 03:28:19;;;;;;;;;;;;;;;;;;5009908;28;98561;-76
2022/12/26 03:30:49;;;;;;;49.00;31.15;;;;;;;;;;5008563;28;128312;-76
2022/12/26 03:36:03;;;;;;;43.85;30.02;;;;;;;;;;5008588;28;98516;-77
2022/12/26 03:38:35;;;;;;;52.50;32.10;;;;;;;;;;5008892;28;99453;-77
2022/12/26 04:44:10;;;;;;;34.50;25.20;;;;;;;;;;5008454;28;98298;-75
2022/12/26 04:46:41;;;;;;;31.30;24.08;;;;;;;;;;5008142;28;98195;-76
2022/12/26 04:51:57;;;;;;;30.42;23.02;;;;;;;;;;5007643;28;98291;-77
2022/12/26 04:54:24;;;;;;;28.08;22.35;;;;;;;;;;5008197;28;99549;-75
2022/12/26 04:56:51;;;;;;;32.65;22.70;;;;;;;;;;5008054;28;99871;-75
2022/12/26 04:59:17;;;;;;;36.75;24.27;;;;;;;;;;5010395;28;98232;-76
2022/12/26 05:10:00;;;;;;;40.15;24.70;;;;;;;;;;5007804;28;100040;-76
2022/12/26 05:12:27;;;;;;;36.25;26.85;;;;;;;;;;5006744;28;98402;-76
2022/12/26 05:14:53;;;;;;;46.40;26.73;;;;;;;;;;5007937;28;99524;-77
2022/12/26 05:28:41;;;;;;;41.28;28.27;;;;;;;;;;5006103;28;99029;-77
2022/12/26 05:31:09;;;;;;;44.65;29.70;;;;;;;;;;5007127;28;99546;-76
2022/12/26 05:36:23;;;;;;;48.83;26.05;;;;;;;;;;5006328;28;99539;-75
2022/12/26 05:38:50;;;;;;;38.22;27.13;;;;;;;;;;5007396;28;100416;-75
2022/12/26 05:41:16;;;;;;;44.58;29.60;;;;;;;;;;5006989;28;98330;-75
2022/12/26 05:43:43;;;;;;;42.05;27.45;;;;;;;;;;5007484;28;99877;-76
2022/12/26 05:46:09;;;;;;;51.42;28.10;;;;;;;;;;5010075;28;99102;-76
2022/12/26 05:48:35;;;;;;;43.55;26.73;;;;;;;;;;5006358;28;99485;-76
2022/12/26 05:51:02;;;;;;;41.30;26.15;;;;;;;;;;5006594;28;100525;-76
2022/12/26 05:53:29;;;;;;;40.70;25.42;;;;;;;;;;5007454;28;98893;-76
2022/12/26 05:56:03;;;;;;;38.58;24.48;;;;;;;;;;5007094;28;99845;-76
2022/12/26 05:58:29;;;;;;;35.80;24.45;;;;;;;;;;5007313;28;100905;-76
2022/12/26 06:01:06;;;;;;;36.78;23.10;;;;;;;;;;5007539;28;98270;-75
2022/12/26 06:03:34;;;;;;;34.58;23.60;;;;;;;;;;5007731;28;98461;-77
2022/12/26 06:06:00;;;;;;;27.60;21.17;;;;;;;;;;5011322;28;99089;-77
2022/12/26 06:08:27;;;;;;;34.95;21.55;;;;;;;;;;5006485;28;98457;-77
2022/12/26 06:10:53;;;;;;;29.17;20.25;;;;;;;;;;5007411;28;100194;-75
2022/12/26 06:13:19;;;;;;;31.70;21.02;;;;;;;;;;5006941;28;98632;-75
2022/12/26 06:15:46;;;;;;;27.60;20.23;;;;;;;;;;5005345;28;99607;-75
2022/12/26 06:18:12;;;;;;;29.30;19.58;;;;;;;;;;5007041;28;99953;-75
2022/12/26 06:20:39;;;;;;;28.73;19.75;;;;;;;;;;5006460;28;98359;-75
2022/12/26 06:23:05;;;;;;;22.75;17.55;;;;;;;;;;5006445;28;98994;-76
2022/12/26 06:25:32;;;;;;;24.42;18.42;;;;;;;;;;5006595;28;100061;-75
2022/12/26 06:27:58;;;;;;;26.48;18.05;;;;;;;;;;5010284;28;98245;-75
2022/12/26 06:30:25;;;;;;;23.90;16.67;;;;;;;;;;5005476;28;99156;-76
2022/12/26 06:32:51;;;;;;;25.45;14.93;;;;;;;;;;5007120;28;98286;-75
2022/12/26 06:35:18;;;;;;;21.35;16.50;;;;;;;;;;5007131;28;99266;-77
2022/12/26 06:37:44;;;;;;;21.55;15.60;;;;;;;;;;5005679;28;100292;-75
2022/12/26 06:40:11;;;;;;;15.02;13.48;;;;;;;;;;5006055;28;98338;-76
2022/12/26 06:42:37;;;;;;;18.92;14.02;;;;;;;;;;5005933;28;98763;-76
2022/12/26 06:45:04;;;;;;;18.80;13.55;;;;;;;;;;5005251;28;99014;-76
2022/12/26 06:47:30;;;;;;;20.50;14.50;;;;;;;;;;5006388;28;98419;-76
2022/12/26 06:49:57;;;;;;;18.30;14.50;;;;;;;;;;5012500;28;98627;-75
2022/12/26 06:52:23;;;;;;;15.93;12.75;;;;;;;;;;5009299;28;98230;-75
2022/12/26 06:54:49;;;;;;;19.92;13.68;;;;;;;;;;5009816;28;98954;-75
2022/12/26 06:57:16;;;;;;;21.30;12.95;;;;;;;;;;5010193;28;100223;-75
2022/12/26 06:59:42;;;;;;;18.85;12.75;;;;;;;;;;5008602;28;98437;-75
2022/12/26 07:02:10;;;;;;;16.92;13.65;;;;;;;;;;5009311;28;98746;-76
2022/12/26 07:04:36;;;;;;;20.80;13.15;;;;;;;;;;5007811;28;98979;-75
2022/12/26 07:07:02;;;;;;;18.95;13.05;;;;;;;;;;5009259;28;98306;-75
2022/12/26 07:09:29;;;;;;;22.27;13.75;;;;;;;;;;5008799;28;98649;-75
2022/12/26 07:11:59;;;;;;;16.15;12.32;;;;;;;;;;5011685;28;99054;-75
2022/12/26 07:14:26;;;;;;;15.77;11.85;;;;;;;;;;5009083;28;99145;-75
2022/12/26 07:16:52;;;;;;;12.85;9.52;;;;;;;;;;5009524;28;100310;-77
2022/12/26 07:19:18;;;;;;;16.48;11.30;;;;;;;;;;5009102;28;98743;-76
2022/12/26 07:21:45;;;;;;;15.48;11.85;;;;;;;;;;5009805;28;99394;-76
2022/12/26 07:24:16;;;;;;;16.60;11.20;;;;;;;;;;5009135;28;99208;-75
2022/12/26 07:26:43;;;;;;;13.05;11.70;;;;;;;;;;5008650;28;99399;-76
2022/12/26 07:29:11;;;;;;;15.65;10.88;;;;;;;;;;5008324;28;98891;-76
2022/12/26 07:31:37;;;;;;;13.70;11.02;;;;;;;;;;5008954;28;100054;-76
2022/12/26 07:34:03;;;;;;;12.43;11.05;;;;;;;;;;5012211;28;98302;-76
2022/12/26 07:36:30;;;;;;;17.63;11.15;;;;;;;;;;5009104;28;100023;-76
2022/12/26 07:38:56;;;;;;;14.15;10.20;;;;;;;;;;5009587;28;98201;-76
2022/12/26 07:44:10;;;;;;;10.75;9.63;;;;;;;;;;5008005;28;101892;-76
2022/12/26 07:46:36;;;;;;;17.92;10.23;;;;;;;;;;5009541;28;98271;-76
2022/12/26 07:49:03;;;;;;;13.57;9.65;;;;;;;;;;5008771;28;99366;-75
2022/12/26 07:51:29;;;;;;;10.50;9.00;;;;;;;;;;5008891;28;100745;-76
2022/12/26 07:53:56;;;;;;;9.90;8.48;;;;;;;;;;5007907;28;98318;-76
2022/12/26 07:56:22;;;;;;;13.55;9.20;;;;;;;;;;5012323;28;99697;-76
2022/12/26 07:58:50;;;;;;;12.70;9.40;;;;;;;;;;5008330;28;98761;-76
2022/12/26 08:01:16;;;;;;;12.75;9.15;;;;;;;;;;5008657;28;99489;-76
2022/12/26 08:03:43;;;;;;;11.93;8.85;;;;;;;;;;5008568;28;99279;-76
2022/12/26 08:06:10;;;;;;;14.88;8.43;;;;;;;;;;5009094;28;98277;-76
2022/12/26 08:08:37;;;;;;;13.82;7.32;;;;;;;;;;5007401;28;98737;-76
2022/12/26 08:11:04;;;;;;;8.23;7.30;;;;;;;;;;5009085;28;99210;-76
2022/12/26 08:13:31;;;;;;;12.48;6.97;;;;;;;;;;5008746;28;98286;-76
2022/12/26 08:15:58;;;;;;;15.45;9.35;;;;;;;;;;5011353;28;99412;-76
2022/12/26 08:18:24;;;;;;;12.88;6.75;;;;;;;;;;5007721;28;98308;-76
2022/12/26 08:20:51;;;;;;;12.20;6.47;;;;;;;;;;5008680;28;98655;-76
2022/12/26 08:23:17;;;;;;;9.88;5.50;;;;;;;;;;5008140;28;100022;-76
2022/12/26 08:25:44;;;;;;;5.32;4.60;;;;;;;;;;5008296;28;98306;-76
2022/12/26 08:28:10;;;;;;;17.15;5.18;;;;;;;;;;5008936;28;99800;-76
2022/12/26 08:30:40;;;;;;;12.38;5.20;;;;;;;;;;5007719;28;100423;-76
2022/12/26 08:33:06;;;;;;;18.33;5.03;;;;;;;;;;5009064;28;98285;-77
2022/12/26 08:35:37;;;;;;;8.38;4.82;;;;;;;;;;5008953;28;99419;-76
2022/12/26 08:38:03;;;;;;;13.75;5.00;;;;;;;;;;5011395;28;100084;-76
2022/12/26 08:40:30;;;;;;;6.07;3.70;;;;;;;;;;5008387;28;99345;-76
2022/12/26 08:43:08;;;;;;;8.90;4.22;;;;;;;;;;5007250;28;99927;-76
2022/12/26 08:46:05;;;;;;;8.63;4.57;;;;;;;;;;5008762;28;98487;-76
2022/12/26 08:48:32;;;;;;;11.60;3.85;;;;;;;;;;5008258;28;99884;-75
2022/12/26 08:51:03;;;;;;;9.48;4.07;;;;;;;;;;5007777;28;100483;-75
2022/12/26 08:53:31;;;;;;;8.38;4.47;;;;;;;;;;5007925;28;98643;-76
2022/12/26 08:55:58;;;;;;;8.18;3.97;;;;;;;;;;5008541;28;99969;-75
2022/12/26 08:58:24;;;;;;;11.40;4.22;;;;;;;;;;5007039;28;100145;-75
2022/12/26 09:00:51;;;;;;;8.65;4.22;;;;;;;;;;5011849;28;98324;-75
2022/12/26 09:03:21;;;;;;;7.53;4.30;;;;;;;;;;5008187;28;100170;-75
2022/12/26 09:05:47;;;;;;;10.18;4.45;;;;;;;;;;5006732;28;98252;-75
2022/12/26 09:08:14;;;;;;;22.23;4.70;;;;;;;;;;5006827;28;99814;-75
2022/12/26 09:10:40;;;;;;;7.03;4.15;;;;;;;;;;5007498;28;100071;-75
2022/12/26 09:13:06;;;;;;;6.18;3.90;;;;;;;;;;5007869;28;98808;-75
2022/12/26 09:15:33;;;;;;;16.00;4.45;;;;;;;;;;5007635;28;98771;-76
2022/12/26 09:17:59;;;;;;;8.80;4.18;;;;;;;;;;5007366;28;99311;-77
2022/12/26 09:20:27;;;;;;;8.25;3.88;;;;;;;;;;5007460;28;98770;-76
2022/12/26 09:22:54;;;;;;;8.05;3.47;;;;;;;;;;5011270;28;98741;-76
2022/12/26 09:25:22;;;;;;;6.65;2.53;;;;;;;;;;5007356;28;98262;-75
2022/12/26 09:27:48;;;;;;;10.05;3.10;;;;;;;;;;5007835;28;99340;-76
2022/12/26 09:30:22;;;;;;;10.20;3.05;;;;;;;;;;5007407;28;101138;-76
2022/12/26 09:32:48;;;;;;;10.00;4.57;;;;;;;;;;5006486;28;98300;-76
2022/12/26 09:35:16;;;;;;;5.93;2.45;;;;;;;;;;5007600;28;99505;-76
2022/12/26 09:37:43;;;;;;;10.43;3.40;;;;;;;;;;5007327;28;100473;-75
2022/12/26 09:40:18;;;;;;;4.03;2.88;;;;;;;;;;5006912;28;98213;-76
2022/12/26 09:42:53;;;;;;;6.13;2.88;;;;;;;;;;5006779;28;99056;-75
2022/12/26 09:45:25;;;;;;;9.80;3.30;;;;;;;;;;5010643;28;100316;-75
2022/12/26 09:48:08;;;;;;;5.77;2.50;;;;;;;;;;5006699;28;98630;-76
2022/12/26 09:50:37;;;;;;;7.80;2.35;;;;;;;;;;5006949;28;99588;-76
2022/12/26 09:53:18;;;;;;;12.05;2.50;;;;;;;;;;5007528;28;98188;-76
2022/12/26 09:55:50;;;;;;;9.57;3.28;;;;;;;;;;5006863;28;99591;-76
2022/12/26 09:58:26;;;;;;;8.98;3.28;;;;;;;;;;5006373;28;100101;-76
2022/12/26 10:01:00;;;;;;;12.80;3.25;;;;;;;;;;5006635;28;98678;-77
2022/12/26 10:03:27;;;;;;;14.18;2.72;;;;;;;;;;5007109;28;99436;-77
2022/12/26 10:06:01;;;;;;;16.13;2.95;;;;;;;;;;5006889;28;100404;-77
2022/12/26 10:08:37;;;;;;;10.50;2.75;;;;;;;;;;5009159;28;98226;-77
2022/12/26 10:11:06;;;;;;;11.60;2.83;;;;;;;;;;5006745;28;100185;-76
2022/12/26 10:13:37;;;;;;;11.68;2.20;;;;;;;;;;5006737;28;98392;-77
2022/12/26 10:16:10;;;;;;;17.13;3.47;;;;;;;;;;5006814;28;98336;-77
2022/12/26 10:18:43;;;;;;;9.73;2.30;;;;;;;;;;5006761;28;99962;-77
2022/12/26 10:21:16;;;;;;;15.98;3.53;;;;;;;;;;5006801;28;98316;-76
2022/12/26 10:24:08;;;;;;;18.63;3.13;;;;;;;;;;5004554;28;99220;-76
2022/12/26 10:26:39;;;;;;;20.10;3.90;;;;;;;;;;4998258;28;101350;-76
2022/12/26 10:29:08;;;;;;;13.68;3.10;;;;;;;;;;5009719;28;98253;-77
2022/12/26 10:31:38;;;;;;;17.05;3.60;;;;;;;;;;5006329;28;100113;-76
2022/12/26 10:34:25;;;;;;;12.38;3.33;;;;;;;;;;5006566;28;98335;-77
2022/12/26 10:37:03;;;;;;;15.38;2.45;;;;;;;;;;5006088;28;99452;-76
2022/12/26 10:39:35;;;;;;;9.60;2.33;;;;;;;;;;5006288;28;99945;-76
2022/12/26 10:42:07;;;;;;;10.45;2.47;;;;;;;;;;5006818;28;98188;-76
2022/12/26 10:44:33;;;;;;;15.27;2.30;;;;;;;;;;5005673;28;99368;-76
2022/12/26 10:47:06;;;;;;;20.70;3.20;;;;;;;;;;5006695;28;99904;-76
2022/12/26 10:49:32;;;;;;;9.15;2.30;;;;;;;;;;5005517;28;98264;-76
2022/12/26 10:52:00;;;;;;;8.55;2.30;;;;;;;;;;5009329;28;99778;-76
2022/12/26 10:54:27;;;;;;;12.25;3.00;;;;;;;;;;5006038;28;98325;-77
2022/12/26 10:56:54;;;;;;;16.58;2.47;;;;;;;;;;5005843;28;99427;-77
2022/12/26 10:59:22;;;;;;;9.75;2.92;;;;;;;;;;5006196;28;100074;-76
2022/12/26 11:01:49;;;;;;;9.77;2.08;;;;;;;;;;5006356;28;98692;-76
2022/12/26 11:04:18;;;;;;;5.45;1.70;;;;;;;;;;5005507;28;98890;-76
2022/12/26 11:07:08;;;;;;;9.98;1.88;;;;;;;;;;5006167;28;100058;-76
2022/12/26 11:09:39;;;;;;;14.57;1.73;;;;;;;;;;5005288;28;98279;-76
2022/12/26 11:12:17;;;;;;;6.38;1.85;;;;;;;;;;5005677;28;101450;-77
2022/12/26 11:14:44;;;;;;;11.00;2.42;;;;;;;;;;5008017;28;99875;-78
2022/12/26 11:17:13;;;;;;;11.85;3.50;;;;;;;;;;5005565;28;98597;-76
2022/12/26 11:19:41;;;;;;;15.75;2.70;;;;;;;;;;5005248;28;99925;-77
2022/12/26 11:22:13;;;;;;;5.32;1.58;;;;;;;;;;5005692;28;98287;-76
2022/12/26 11:24:40;;;;;;;11.25;1.73;;;;;;;;;;5006042;28;99543;-77
2022/12/26 11:27:16;;;;;;;10.38;1.63;;;;;;;;;;5003943;28;98976;-77
2022/12/26 11:29:43;;;;;;;7.05;2.00;;;;;;;;;;5005658;28;99453;-77
2022/12/26 11:32:15;;;;;;;8.95;1.70;;;;;;;;;;5005222;28;98500;-77
2022/12/26 11:34:44;;;;;;;;;;;;;;;;;;5008311;28;100414;-77
2022/12/26 11:37:22;;;;;;;6.32;1.13;;;;;;;;;;5011782;28;119633;-76
2022/12/26 11:39:49;;;;;;;5.90;1.60;;;;;;;;;;5007663;28;99043;-76
2022/12/26 11:42:20;;;;;;;4.90;1.50;;;;;;;;;;5009165;28;98081;-75
2022/12/26 11:44:51;;;;;;;8.35;2.08;;;;;;;;;;5009091;28;98720;-76
2022/12/26 11:47:22;;;;;;;8.63;1.98;;;;;;;;;;5008399;28;100555;-76
2022/12/26 11:49:59;;;;;;;6.13;2.30;;;;;;;;;;5009044;28;98734;-77
2022/12/26 11:52:31;;;;;;;14.15;2.10;;;;;;;;;;5008963;28;99867;-78
2022/12/26 11:54:58;;;;;;;7.00;2.53;;;;;;;;;;5008451;28;100290;-76
2022/12/26 11:57:28;;;;;;;8.13;1.60;;;;;;;;;;5008740;28;98616;-77
2022/12/26 12:00:12;;;;;;;22.08;4.80;;;;;;;;;;5011841;28;99138;-77
2022/12/26 12:02:40;;;;;;;15.70;7.53;;;;;;;;;;5008965;28;98157;-76
2022/12/26 12:05:14;;;;;;;9.90;2.85;;;;;;;;;;5007915;28;99864;-76
2022/12/26 12:07:43;;;;;;;6.68;1.85;;;;;;;;;;5007526;28;98939;-76
2022/12/26 12:10:32;;;;;;;7.60;1.60;;;;;;;;;;5008613;28;98334;-77
2022/12/26 12:13:21;;;;;;;5.38;1.40;;;;;;;;;;5008974;28;99682;-76
2022/12/26 12:16:00;;;;;;;4.20;1.33;;;;;;;;;;5007325;28;99005;-76
2022/12/26 12:18:46;;;;;;;8.98;2.05;;;;;;;;;;5008347;28;99647;-76
2022/12/26 12:21:27;;;;;;;11.00;2.17;;;;;;;;;;5008191;28;99709;-76
2022/12/26 12:24:26;;;;;;;8.80;1.65;;;;;;;;;;5011465;28;98631;-76
2022/12/26 12:26:55;;;;;;;5.85;1.23;;;;;;;;;;4973911;28;98797;-76
2022/12/26 12:29:42;;;;;;;4.72;1.40;;;;;;;;;;5007315;28;99475;-76
2022/12/26 12:32:25;;;;;;;10.43;1.83;;;;;;;;;;5007461;28;98375;-76
2022/12/26 12:34:51;;;;;;;9.18;2.33;;;;;;;;;;5008261;28;98879;-77
2022/12/26 12:37:25;;;;;;;8.93;1.98;;;;;;;;;;5008679;28;99517;-76
2022/12/26 12:39:57;;;;;;;9.45;2.47;;;;;;;;;;5008504;28;98187;-76
2022/12/26 12:42:32;;;;;;;10.68;2.78;;;;;;;;;;5007667;28;99720;-76
2022/12/26 12:45:12;;;;;;;8.80;1.95;;;;;;;;;;5010878;28;100110;-76
2022/12/26 12:47:44;;;;;;;11.63;1.88;;;;;;;;;;5008092;28;99753;-76
2022/12/26 12:50:14;;;;;;;6.47;1.80;;;;;;;;;;5007786;28;100171;-76
2022/12/26 12:52:41;;;;;;;11.35;2.08;;;;;;;;;;5008164;28;98262;-76
2022/12/26 12:55:19;;;;;;;10.38;2.17;;;;;;;;;;5008290;28;99547;-76
2022/12/26 12:57:56;;;;;;;3.63;1.33;;;;;;;;;;5006379;28;100317;-76
2022/12/26 13:00:27;;;;;;;2.92;1.20;;;;;;;;;;5008097;28;98295;-76
2022/12/26 13:02:55;;;;;;;4.20;1.58;;;;;;;;;;5008172;28;99945;-75
2022/12/26 13:05:41;;;;;;;5.35;1.52;;;;;;;;;;5007649;28;99180;-76
2022/12/26 13:08:11;;;;;;;8.70;2.30;;;;;;;;;;5011004;28;98160;-76
2022/12/26 13:10:42;;;;;;;6.38;0.98;;;;;;;;;;5006755;28;100177;-77
2022/12/26 13:13:26;;;;;;;3.83;1.48;;;;;;;;;;5007981;28;98184;-77
2022/12/26 13:15:56;;;;;;;14.13;2.90;;;;;;;;;;5006697;28;98824;-77
2022/12/26 13:18:25;;;;;;;3.53;1.38;;;;;;;;;;5006773;28;99038;-78
2022/12/26 13:20:53;;;;;;;8.80;1.88;;;;;;;;;;5007534;28;98322;-77
2022/12/26 13:26:48;;;;;;;11.95;2.55;;;;;;;;;;4944957;28;99931;-75
2022/12/26 13:29:16;;;;;;;2.35;1.20;;;;;;;;;;4945907;28;98384;-76
2022/12/26 13:31:43;;;;;;;5.68;1.40;;;;;;;;;;4987552;28;99654;-77
2022/12/26 13:34:14;;;;;;;3.70;1.90;;;;;;;;;;5007975;28;98901;-77
2022/12/26 13:36:48;;;;;;;42.70;22.70;;;;;;;;;;5007853;28;99481;-76
2022/12/26 13:39:20;;;;;;;7.85;2.15;;;;;;;;;;5006732;28;100029;-75
2022/12/26 13:44:39;;;;;;;8.32;1.70;;;;;;;;;;5007313;28;99353;-76
2022/12/26 13:47:25;;;;;;;11.98;5.00;;;;;;;;;;5006527;28;100024;-76
2022/12/26 13:49:52;;;;;;;6.13;2.40;;;;;;;;;;5006615;28;98228;-77
2022/12/26 13:52:32;;;;;;;6.32;2.22;;;;;;;;;;5007311;28;99608;-76
2022/12/26 13:55:05;;;;;;;6.80;1.73;;;;;;;;;;5010151;28;99323;-76
2022/12/26 13:57:38;;;;;;;12.50;2.03;;;;;;;;;;5005836;28;99615;-76
2022/12/26 14:00:11;;;;;;;6.20;2.38;;;;;;;;;;5006255;28;100341;-76
2022/12/26 14:02:49;;;;;;;5.93;1.67;;;;;;;;;;5006767;28;98316;-76
2022/12/26 14:05:43;;;;;;;6.25;1.50;;;;;;;;;;5007009;28;99537;-76
2022/12/26 14:08:09;;;;;;;11.57;1.88;;;;;;;;;;5005913;28;100159;-76
2022/12/26 14:11:00;;;;;;;6.63;1.98;;;;;;;;;;5006624;28;98402;-75
2022/12/26 14:13:32;;;;;;;11.85;2.35;;;;;;;;;;5006887;28;99544;-76
2022/12/26 14:16:31;;;;;;;10.45;2.30;;;;;;;;;;5005608;28;100345;-76
2022/12/26 14:19:04;;;;;;;10.45;2.38;;;;;;;;;;4975717;28;98239;-76
2022/12/26 14:21:36;;;;;;;5.72;1.55;;;;;;;;;;5005778;28;98945;-76
2022/12/26 14:24:19;;;;;;;11.40;2.63;;;;;;;;;;5006976;28;98243;-76
2022/12/26 14:26:50;;;;;;;9.68;3.85;;;;;;;;;;5006812;28;99541;-76
2022/12/26 14:29:35;;;;;;;9.75;1.73;;;;;;;;;;5006022;28;100260;-76
2022/12/26 14:32:09;;;;;;;12.63;2.42;;;;;;;;;;5006221;28;98303;-76
2022/12/26 14:34:54;;;;;;;12.55;4.10;;;;;;;;;;5006761;28;99928;-76
2022/12/26 14:37:27;;;;;;;9.80;2.13;;;;;;;;;;5006310;28;99154;-75
2022/12/26 14:39:53;;;;;;;12.48;2.35;;;;;;;;;;5009317;28;98256;-75
2022/12/26 14:45:25;;;;;;;13.00;3.40;;;;;;;;;;5006676;28;98127;-77
2022/12/26 14:47:52;;;;;;;5.93;2.20;;;;;;;;;;5006691;28;99540;-75
2022/12/26 14:50:31;;;;;;;7.35;2.95;;;;;;;;;;5005781;28;99894;-76
2022/12/26 14:53:16;;;;;;;10.32;1.90;;;;;;;;;;5006658;28;98169;-76
2022/12/26 14:55:46;;;;;;;15.55;4.25;;;;;;;;;;5006505;28;99392;-77
2022/12/26 14:58:25;;;;;;;9.40;2.30;;;;;;;;;;5006262;28;100011;-77
2022/12/26 15:00:51;;;;;;;12.70;2.22;;;;;;;;;;5006425;28;98344;-76
2022/12/26 15:03:27;;;;;;;12.73;2.05;;;;;;;;;;5009134;28;99059;-77
2022/12/26 15:06:00;;;;;;;10.93;2.20;;;;;;;;;;5007123;28;98280;-76
2022/12/26 15:08:45;;;;;;;16.30;2.42;;;;;;;;;;5005484;28;99756;-76
2022/12/26 15:11:29;;;;;;;7.25;2.17;;;;;;;;;;5009132;28;99300;-76
2022/12/26 15:14:02;;;;;;;11.73;1.70;;;;;;;;;;5009598;28;98311;-76
2022/12/26 15:16:33;;;;;;;11.48;4.18;;;;;;;;;;5009560;28;100128;-76
2022/12/26 15:19:24;;;;;;;7.47;2.03;;;;;;;;;;5009057;28;100031;-76
2022/12/26 15:22:13;;;;;;;7.25;2.30;;;;;;;;;;5009670;28;98204;-75
2022/12/26 15:24:40;;;;;;;5.65;2.50;;;;;;;;;;5009116;28;99673;-77
2022/12/26 15:27:35;;;;;;;10.15;2.38;;;;;;;;;;5012463;28;98886;-77
2022/12/26 15:30:01;;;;;;;10.35;2.03;;;;;;;;;;5009205;28;98972;-76
2022/12/26 15:33:00;;;;;;;5.38;1.55;;;;;;;;;;5008447;28;98988;-76
2022/12/26 15:35:26;;;;;;;8.43;2.53;;;;;;;;;;4974921;28;98151;-76
2022/12/26 15:38:00;;;;;;;15.13;3.97;;;;;;;;;;5009316;28;98920;-76
2022/12/26 15:40:50;;;;;;;9.25;2.63;;;;;;;;;;5008820;28;100143;-76
2022/12/26 15:43:16;;;;;;;7.43;2.28;;;;;;;;;;5001058;28;98236;-76
2022/12/26 15:45:46;;;;;;;11.85;2.50;;;;;;;;;;5008603;28;99019;-76
2022/12/26 15:48:15;;;;;;;13.55;2.80;;;;;;;;;;5009153;28;99343;-77
2022/12/26 15:51:00;;;;;;;15.00;3.30;;;;;;;;;;5012417;28;98286;-75
2022/12/26 15:53:41;;;;;;;24.60;3.35;;;;;;;;;;5008669;28;100125;-77
2022/12/26 15:56:23;;;;;;;9.57;3.13;;;;;;;;;;5009473;28;98173;-77
2022/12/26 15:59:08;;;;;;;10.35;2.75;;;;;;;;;;5009252;28;99451;-76
2022/12/26 16:01:35;;;;;;;13.65;2.90;;;;;;;;;;5008101;28;100016;-76
2022/12/26 16:04:03;;;;;;;8.77;2.92;;;;;;;;;;5009144;28;98288;-76
2022/12/26 16:06:42;;;;;;;10.65;2.67;;;;;;;;;;5008477;28;99986;-76
2022/12/26 16:09:18;;;;;;;12.10;2.92;;;;;;;;;;5008464;28;100033;-76
2022/12/26 16:11:51;;;;;;;7.22;3.50;;;;;;;;;;5008492;28;98188;-77
2022/12/26 16:14:17;;;;;;;;;;;;;;;;;;5012189;28;99378;-74
2022/12/26 16:16:43;;;;;;;8.30;2.50;;;;;;;;;;5007804;28;123923;-76
2022/12/26 16:19:14;;;;;;;15.65;3.65;;;;;;;;;;5009302;28;99445;-76
2022/12/26 16:24:26;;;;;;;10.20;5.65;;;;;;;;;;5008696;28;98192;-75
2022/12/26 16:26:54;;;;;;;17.80;7.20;;;;;;;;;;5007929;28;99523;-75
2022/12/26 16:29:20;;;;;;;9.20;4.28;;;;;;;;;;5008225;28;99873;-75
2022/12/26 16:31:46;;;;;;;15.45;3.40;;;;;;;;;;5008364;28;98286;-75
2022/12/26 16:34:15;;;;;;;8.02;2.38;;;;;;;;;;5008502;28;99364;-76
2022/12/26 16:36:42;;;;;;;17.88;3.60;;;;;;;;;;5011485;28;100022;-75
2022/12/26 16:39:10;;;;;;;13.75;2.88;;;;;;;;;;5008643;28;99564;-76
2022/12/26 16:41:54;;;;;;;14.25;3.45;;;;;;;;;;5007559;28;100458;-76
2022/12/26 16:44:27;;;;;;;9.70;2.80;;;;;;;;;;5008782;28;98245;-76
2022/12/26 16:46:58;;;;;;;9.20;4.35;;;;;;;;;;5008426;28;100011;-77
2022/12/26 16:49:26;;;;;;;9.90;3.35;;;;;;;;;;5007365;28;99492;-76
2022/12/26 16:51:53;;;;;;;16.45;3.58;;;;;;;;;;5007645;28;98251;-76
2022/12/26 16:54:20;;;;;;;14.93;4.15;;;;;;;;;;5008618;28;99345;-75
2022/12/26 16:56:47;;;;;;;8.93;3.35;;;;;;;;;;5010637;28;100108;-76
2022/12/26 16:59:16;;;;;;;18.13;3.55;;;;;;;;;;5008101;28;99273;-76
2022/12/26 17:01:51;;;;;;;14.93;3.90;;;;;;;;;;5007790;28;100047;-76
2022/12/26 17:04:19;;;;;;;11.48;3.97;;;;;;;;;;5008112;28;98160;-77
2022/12/26 17:06:47;;;;;;;8.85;4.18;;;;;;;;;;5007779;28;98713;-76
2022/12/26 17:09:14;;;;;;;15.27;4.95;;;;;;;;;;5008228;28;100728;-76